Time,TemperatureF,DewpointF,PressureIn,WindDirection,WindDirectionDegrees,WindSpeedMPH,WindSpeedGustMPH,Humidity,HourlyPrecipIn,Conditions,Clouds,dailyrainin,SoftwareType,DateUTC
2013-05-22 00:01:00,65.2,63.1,29.85,WSW,251,0.0,0.0,93,0.00,,,0.00,WUHU216DAVISVP2,2013-05-22 04:01:00,
2013-05-22 00:02:00,65.2,63.1,29.85,WSW,251,0.0,0.0,93,0.00,,,0.00,WUHU216DAVISVP2,2013-05-22 04:02:00,
2013-05-22 00:07:00,65.0,62.9,29.85,WSW,251,0.0,0.0,93,0.00,,,0.00,WUHU216DAVISVP2,2013-05-22 04:07:00,
2013-05-22 00:12:00,64.9,62.8,29.84,WSW,251,0.0,0.0,93,0.00,,,0.00,WUHU216DAVISVP2,2013-05-22 04:12:00,
2013-05-22 00:17:00,64.8,62.7,29.84,WSW,251,0.0,0.0,93,0.00,,,0.00,WUHU216DAVISVP2,2013-05-22 04:17:00,
2013-05-22 00:22:00,64.7,62.9,29.85,WSW,251,0.0,0.0,94,0.00,,,0.00,WUHU216DAVISVP2,2013-05-22 04:22:00,
2013-05-22 00:27:00,64.6,62.8,29.85,WSW,251,0.0,0.0,94,0.00,,,0.00,WUHU216DAVISVP2,2013-05-22 04:27:00,
2013-05-22 00:32:00,64.5,62.7,29.85,WSW,251,0.0,0.0,94,0.00,,,0.00,WUHU216DAVISVP2,2013-05-22 04:32:00,
2013-05-22 00:37:00,64.5,62.7,29.85,WSW,251,0.0,0.0,94,0.00,,,0.00,WUHU216DAVISVP2,2013-05-22 04:37:00,
2013-05-22 00:42:00,64.4,62.6,29.85,WSW,251,0.0,0.0,94,0.00,,,0.00,WUHU216DAVISVP2,2013-05-22 04:42:00,
2013-05-22 00:47:00,64.4,62.9,29.85,WSW,251,0.0,0.0,95,0.00,,,0.00,WUHU216DAVISVP2,2013-05-22 04:47:00,
2013-05-22 00:52:00,64.4,62.9,29.86,WSW,251,0.0,0.0,95,0.00,,,0.00,WUHU216DAVISVP2,2013-05-22 04:52:00,
2013-05-22 00:57:00,64.4,62.9,29.86,WSW,251,0.0,0.0,95,0.00,,,0.00,WUHU216DAVISVP2,2013-05-22 04:57:00,
2013-05-22 01:02:00,64.4,62.9,29.86,WSW,251,0.0,1.0,95,0.00,,,0.00,WUHU216DAVISVP2,2013-05-22 05:02:00,
2013-05-22 01:07:00,64.3,62.8,29.86,WSW,246,0.0,1.0,95,0.00,,,0.00,WUHU216DAVISVP2,2013-05-22 05:07:00,
2013-05-22 01:12:00,64.2,62.7,29.86,WSW,247,0.0,1.0,95,0.00,,,0.00,WUHU216DAVISVP2,2013-05-22 05:12:00,
2013-05-22 01:17:00,64.2,62.7,29.86,WSW,247,0.0,1.0,95,0.00,,,0.00,WUHU216DAVISVP2,2013-05-22 05:17:00,
2013-05-22 01:22:00,64.1,62.6,29.85,WSW,246,0.0,1.0,95,0.00,,,0.00,WUHU216DAVISVP2,2013-05-22 05:22:00,
2013-05-22 01:27:00,64.1,62.6,29.85,WSW,246,0.0,3.0,95,0.00,,,0.00,WUHU216DAVISVP2,2013-05-22 05:27:00,
2013-05-22 01:32:00,64.1,62.6,29.85,WSW,247,0.0,3.0,95,0.00,,,0.00,WUHU216DAVISVP2,2013-05-22 05:32:00,
2013-05-22 01:37:00,64.0,62.5,29.85,WSW,246,0.0,3.0,95,0.00,,,0.00,WUHU216DAVISVP2,2013-05-22 05:37:00,
2013-05-22 01:42:00,64.0,62.5,29.85,WSW,254,0.0,3.0,95,0.00,,,0.00,WUHU216DAVISVP2,2013-05-22 05:42:00,
2013-05-22 01:47:00,63.9,62.7,29.85,WSW,243,0.0,3.0,96,0.00,,,0.00,WUHU216DAVISVP2,2013-05-22 05:47:00,
2013-05-22 01:52:00,63.9,62.7,29.84,WSW,246,0.0,3.0,96,0.00,,,0.00,WUHU216DAVISVP2,2013-05-22 05:52:00,
2013-05-22 01:57:00,63.8,62.6,29.84,WSW,247,0.0,3.0,96,0.00,,,0.00,WUHU216DAVISVP2,2013-05-22 05:57:00,
2013-05-22 02:02:00,63.7,62.5,29.84,WSW,246,0.0,2.0,96,0.00,,,0.00,WUHU216DAVISVP2,2013-05-22 06:02:00,
2013-05-22 02:07:00,63.7,62.5,29.84,WSW,246,0.0,2.0,96,0.00,,,0.00,WUHU216DAVISVP2,2013-05-22 06:07:00,
2013-05-22 02:12:00,63.6,62.4,29.84,WSW,246,0.0,2.0,96,0.00,,,0.00,WUHU216DAVISVP2,2013-05-22 06:12:00,
2013-05-22 02:17:00,63.6,62.4,29.84,SW,216,0.0,2.0,96,0.00,,,0.00,WUHU216DAVISVP2,2013-05-22 06:17:00,
2013-05-22 02:22:00,63.7,62.5,29.83,SW,216,0.0,3.0,96,0.00,,,0.00,WUHU216DAVISVP2,2013-05-22 06:22:00,
2013-05-22 02:27:00,63.7,62.5,29.83,SW,216,0.0,3.0,96,0.00,,,0.00,WUHU216DAVISVP2,2013-05-22 06:27:00,
2013-05-22 02:32:00,63.5,62.3,29.83,SW,216,0.0,3.0,96,0.00,,,0.00,WUHU216DAVISVP2,2013-05-22 06:32:00,
2013-05-22 02:37:00,63.4,62.2,29.83,SW,216,0.0,3.0,96,0.00,,,0.00,WUHU216DAVISVP2,2013-05-22 06:37:00,
2013-05-22 02:42:00,63.3,62.1,29.82,SW,216,0.0,1.0,96,0.00,,,0.00,WUHU216DAVISVP2,2013-05-22 06:42:00,
2013-05-22 02:47:00,63.1,61.9,29.82,SW,216,0.0,1.0,96,0.00,,,0.00,WUHU216DAVISVP2,2013-05-22 06:47:00,
2013-05-22 02:52:00,63.1,61.9,29.82,SW,216,0.0,1.0,96,0.00,,,0.00,WUHU216DAVISVP2,2013-05-22 06:52:00,
2013-05-22 02:57:00,62.9,61.7,29.81,SW,216,0.0,1.0,96,0.00,,,0.00,WUHU216DAVISVP2,2013-05-22 06:57:00,
2013-05-22 03:02:00,62.8,61.6,29.82,SW,216,0.0,1.0,96,0.00,,,0.00,WUHU216DAVISVP2,2013-05-22 07:02:00,
2013-05-22 03:07:00,62.9,61.7,29.82,SW,216,1.0,2.0,96,0.00,,,0.00,WUHU216DAVISVP2,2013-05-22 07:07:00,
2013-05-22 03:12:00,62.9,61.7,29.82,SW,216,0.0,2.0,96,0.00,,,0.00,WUHU216DAVISVP2,2013-05-22 07:12:00,
2013-05-22 03:17:00,63.0,61.8,29.82,SW,216,0.0,2.0,96,0.00,,,0.00,WUHU216DAVISVP2,2013-05-22 07:17:00,
2013-05-22 03:22:00,62.9,61.7,29.82,SW,216,0.0,2.0,96,0.00,,,0.00,WUHU216DAVISVP2,2013-05-22 07:22:00,
2013-05-22 03:27:00,62.9,61.7,29.82,SW,216,0.0,2.0,96,0.00,,,0.00,WUHU216DAVISVP2,2013-05-22 07:27:00,
2013-05-22 03:32:00,62.9,61.7,29.82,SW,216,0.0,2.0,96,0.00,,,0.00,WUHU216DAVISVP2,2013-05-22 07:32:00,
2013-05-22 03:37:00,62.9,61.7,29.82,SW,216,0.0,2.0,96,0.00,,,0.00,WUHU216DAVISVP2,2013-05-22 07:37:00,
2013-05-22 03:42:00,62.9,61.7,29.82,SW,216,0.0,2.0,96,0.00,,,0.00,WUHU216DAVISVP2,2013-05-22 07:42:00,
2013-05-22 03:47:00,62.9,61.7,29.82,SW,216,0.0,0.0,96,0.00,,,0.00,WUHU216DAVISVP2,2013-05-22 07:47:00,
2013-05-22 03:52:00,62.9,61.7,29.82,SW,216,0.0,0.0,96,0.00,,,0.00,WUHU216DAVISVP2,2013-05-22 07:52:00,
2013-05-22 03:57:00,62.9,61.7,29.82,SW,216,0.0,0.0,96,0.00,,,0.00,WUHU216DAVISVP2,2013-05-22 07:57:00,
2013-05-22 04:02:00,62.9,61.7,29.82,SW,216,0.0,1.0,96,0.00,,,0.00,WUHU216DAVISVP2,2013-05-22 08:02:00,
2013-05-22 04:07:00,63.0,61.8,29.82,SW,216,0.0,1.0,96,0.00,,,0.00,WUHU216DAVISVP2,2013-05-22 08:07:00,
2013-05-22 04:12:00,63.1,61.9,29.82,SW,216,1.0,2.0,96,0.00,,,0.00,WUHU216DAVISVP2,2013-05-22 08:12:00,
2013-05-22 04:17:00,63.1,62.2,29.83,SW,216,0.0,2.0,97,0.00,,,0.00,WUHU216DAVISVP2,2013-05-22 08:17:00,
2013-05-22 04:22:00,63.1,61.9,29.83,SW,216,0.0,2.0,96,0.00,,,0.00,WUHU216DAVISVP2,2013-05-22 08:22:00,
2013-05-22 04:27:00,63.0,61.8,29.83,SW,216,0.0,2.0,96,0.00,,,0.00,WUHU216DAVISVP2,2013-05-22 08:27:00,
2013-05-22 04:32:00,63.1,61.9,29.83,SW,216,0.0,1.0,96,0.00,,,0.00,WUHU216DAVISVP2,2013-05-22 08:32:00,
2013-05-22 04:37:00,63.0,61.8,29.83,SW,216,0.0,1.0,96,0.00,,,0.00,WUHU216DAVISVP2,2013-05-22 08:37:00,
2013-05-22 04:42:00,63.1,61.9,29.83,SW,216,0.0,1.0,96,0.00,,,0.00,WUHU216DAVISVP2,2013-05-22 08:42:00,
2013-05-22 04:47:00,63.1,61.9,29.83,SW,216,1.0,2.0,96,0.00,,,0.00,WUHU216DAVISVP2,2013-05-22 08:47:00,
2013-05-22 04:52:00,63.1,61.9,29.83,SW,216,0.0,2.0,96,0.00,,,0.00,WUHU216DAVISVP2,2013-05-22 08:52:00,
2013-05-22 04:57:00,63.1,61.9,29.83,SW,216,0.0,2.0,96,0.00,,,0.00,WUHU216DAVISVP2,2013-05-22 08:57:00,
2013-05-22 05:02:00,63.2,62.3,29.83,SW,216,0.0,2.0,97,0.00,,,0.00,WUHU216DAVISVP2,2013-05-22 09:02:00,
2013-05-22 05:07:00,63.2,62.3,29.83,SW,216,0.0,1.0,97,0.00,,,0.00,WUHU216DAVISVP2,2013-05-22 09:07:00,
2013-05-22 05:12:00,63.2,62.3,29.83,SW,216,0.0,1.0,97,0.00,,,0.00,WUHU216DAVISVP2,2013-05-22 09:12:00,
2013-05-22 05:17:00,63.2,62.0,29.83,SW,216,0.0,1.0,96,0.00,,,0.00,WUHU216DAVISVP2,2013-05-22 09:17:00,
2013-05-22 05:22:00,63.2,62.0,29.84,SW,216,0.0,1.0,96,0.00,,,0.00,WUHU216DAVISVP2,2013-05-22 09:22:00,
2013-05-22 05:27:00,63.1,61.9,29.84,SW,216,0.0,1.0,96,0.00,,,0.00,WUHU216DAVISVP2,2013-05-22 09:27:00,
2013-05-22 05:32:00,63.0,61.8,29.84,SW,216,0.0,1.0,96,0.00,,,0.00,WUHU216DAVISVP2,2013-05-22 09:32:00,
2013-05-22 05:37:00,62.8,61.6,29.84,SW,216,0.0,0.0,96,0.00,,,0.00,WUHU216DAVISVP2,2013-05-22 09:37:00,
2013-05-22 05:42:00,62.7,61.5,29.84,South,185,0.0,1.0,96,0.00,,,0.00,WUHU216DAVISVP2,2013-05-22 09:42:00,
2013-05-22 05:47:00,62.5,61.3,29.85,South,170,0.0,1.0,96,0.00,,,0.00,WUHU216DAVISVP2,2013-05-22 09:47:00,
2013-05-22 05:52:00,62.4,61.2,29.85,South,170,0.0,1.0,96,0.00,,,0.00,WUHU216DAVISVP2,2013-05-22 09:52:00,
2013-05-22 05:57:00,62.3,61.1,29.85,South,170,0.0,1.0,96,0.00,,,0.00,WUHU216DAVISVP2,2013-05-22 09:57:00,
2013-05-22 06:02:00,62.1,60.9,29.85,South,170,0.0,1.0,96,0.00,,,0.00,WUHU216DAVISVP2,2013-05-22 10:02:00,
2013-05-22 06:07:00,62.0,60.8,29.85,South,170,0.0,0.0,96,0.00,,,0.00,WUHU216DAVISVP2,2013-05-22 10:07:00,
2013-05-22 06:12:00,61.8,60.6,29.85,South,170,0.0,0.0,96,0.00,,,0.00,WUHU216DAVISVP2,2013-05-22 10:12:00,
2013-05-22 06:17:00,61.7,60.5,29.85,South,170,0.0,0.0,96,0.00,,,0.00,WUHU216DAVISVP2,2013-05-22 10:17:00,
2013-05-22 06:22:00,61.5,60.3,29.84,South,170,0.0,0.0,96,0.00,,,0.00,WUHU216DAVISVP2,2013-05-22 10:22:00,
2013-05-22 06:27:00,61.4,60.2,29.85,South,170,0.0,0.0,96,0.00,,,0.00,WUHU216DAVISVP2,2013-05-22 10:27:00,
2013-05-22 06:32:00,61.2,60.0,29.84,South,170,0.0,0.0,96,0.00,,,0.00,WUHU216DAVISVP2,2013-05-22 10:32:00,
2013-05-22 06:37:00,61.1,59.9,29.85,South,170,0.0,0.0,96,0.00,,,0.00,WUHU216DAVISVP2,2013-05-22 10:37:00,
2013-05-22 06:42:00,61.1,59.9,29.85,South,170,0.0,1.0,96,0.00,,,0.00,WUHU216DAVISVP2,2013-05-22 10:42:00,
2013-05-22 06:47:00,61.1,59.9,29.85,South,170,0.0,1.0,96,0.00,,,0.00,WUHU216DAVISVP2,2013-05-22 10:47:00,
2013-05-22 06:52:00,61.2,60.3,29.86,South,170,0.0,1.0,97,0.00,,,0.00,WUHU216DAVISVP2,2013-05-22 10:52:00,
2013-05-22 06:57:00,61.5,60.6,29.86,South,170,0.0,1.0,97,0.00,,,0.00,WUHU216DAVISVP2,2013-05-22 10:57:00,
2013-05-22 07:02:00,61.8,60.9,29.86,South,170,0.0,0.0,97,0.00,,,0.00,WUHU216DAVISVP2,2013-05-22 11:02:00,
2013-05-22 07:07:00,62.2,61.6,29.86,South,170,0.0,1.0,98,0.00,,,0.00,WUHU216DAVISVP2,2013-05-22 11:07:00,
2013-05-22 07:12:00,62.5,61.6,29.86,South,170,0.0,1.0,97,0.00,,,0.00,WUHU216DAVISVP2,2013-05-22 11:12:00,
2013-05-22 07:17:00,62.5,61.3,29.86,South,170,0.0,1.0,96,0.00,,,0.00,WUHU216DAVISVP2,2013-05-22 11:17:00,
2013-05-22 07:22:00,62.8,61.6,29.87,South,170,0.0,1.0,96,0.00,,,0.00,WUHU216DAVISVP2,2013-05-22 11:22:00,
2013-05-22 07:27:00,63.0,61.8,29.87,South,170,0.0,0.0,96,0.00,,,0.00,WUHU216DAVISVP2,2013-05-22 11:27:00,
2013-05-22 07:32:00,63.0,61.8,29.87,South,170,0.0,1.0,96,0.00,,,0.00,WUHU216DAVISVP2,2013-05-22 11:32:00,
2013-05-22 07:37:00,63.3,62.1,29.87,South,170,0.0,1.0,96,0.00,,,0.00,WUHU216DAVISVP2,2013-05-22 11:37:00,
2013-05-22 07:42:00,63.7,62.5,29.87,South,170,0.0,1.0,96,0.00,,,0.00,WUHU216DAVISVP2,2013-05-22 11:42:00,
2013-05-22 07:47:00,64.1,62.9,29.87,SSE,167,1.0,2.0,96,0.00,,,0.00,WUHU216DAVISVP2,2013-05-22 11:47:00,
2013-05-22 07:52:00,64.6,63.1,29.87,SE,141,2.0,2.0,95,0.00,,,0.00,WUHU216DAVISVP2,2013-05-22 11:52:00,
2013-05-22 07:57:00,65.0,62.9,29.87,SE,135,0.0,2.0,93,0.00,,,0.00,WUHU216DAVISVP2,2013-05-22 11:57:00,
2013-05-22 08:02:00,65.4,63.3,29.87,SE,135,1.0,2.0,93,0.00,,,0.00,WUHU216DAVISVP2,2013-05-22 12:02:00,
2013-05-22 08:07:00,65.7,63.0,29.88,SE,135,0.0,2.0,91,0.00,,,0.00,WUHU216DAVISVP2,2013-05-22 12:07:00,
2013-05-22 08:12:00,65.9,63.2,29.88,SE,135,0.0,1.0,91,0.00,,,0.00,WUHU216DAVISVP2,2013-05-22 12:12:00,
2013-05-22 08:17:00,66.2,63.5,29.87,SE,135,1.0,2.0,91,0.00,,,0.00,WUHU216DAVISVP2,2013-05-22 12:17:00,
2013-05-22 08:22:00,66.5,63.8,29.87,SE,128,0.0,3.0,91,0.00,,,0.00,WUHU216DAVISVP2,2013-05-22 12:22:00,
2013-05-22 08:27:00,66.8,64.4,29.87,SE,128,0.0,3.0,92,0.00,,,0.00,WUHU216DAVISVP2,2013-05-22 12:27:00,
2013-05-22 08:32:00,67.1,64.7,29.87,SE,128,0.0,3.0,92,0.00,,,0.00,WUHU216DAVISVP2,2013-05-22 12:32:00,
2013-05-22 08:37:00,67.7,65.0,29.87,ESE,108,1.0,3.0,91,0.00,,,0.00,WUHU216DAVISVP2,2013-05-22 12:37:00,
2013-05-22 08:42:00,68.4,65.0,29.87,ESE,104,1.0,3.0,89,0.00,,,0.00,WUHU216DAVISVP2,2013-05-22 12:42:00,
2013-05-22 08:47:00,69.0,64.3,29.87,East,99,0.0,3.0,85,0.00,,,0.00,WUHU216DAVISVP2,2013-05-22 12:47:00,
2013-05-22 08:52:00,69.8,64.1,29.87,East,99,0.0,3.0,82,0.00,,,0.00,WUHU216DAVISVP2,2013-05-22 12:52:00,
2013-05-22 08:57:00,70.2,63.5,29.87,East,99,0.0,2.0,79,0.00,,,0.00,WUHU216DAVISVP2,2013-05-22 12:57:00,
2013-05-22 09:02:00,71.0,64.2,29.87,ESE,106,0.0,2.0,79,0.00,,,0.00,WUHU216DAVISVP2,2013-05-22 13:02:00,
2013-05-22 09:07:00,71.7,63.4,29.87,ESE,106,0.0,2.0,75,0.00,,,0.00,WUHU216DAVISVP2,2013-05-22 13:07:00,
2013-05-22 09:12:00,72.2,63.4,29.87,ESE,106,1.0,2.0,74,0.00,,,0.00,WUHU216DAVISVP2,2013-05-22 13:12:00,
2013-05-22 09:17:00,72.9,64.1,29.87,ESE,105,1.0,3.0,74,0.00,,,0.00,WUHU216DAVISVP2,2013-05-22 13:17:00,
2013-05-22 09:22:00,73.4,62.2,29.86,ENE,75,0.0,4.0,68,0.00,,,0.00,WUHU216DAVISVP2,2013-05-22 13:22:00,
2013-05-22 09:27:00,73.9,63.5,29.86,NE,38,0.0,4.0,70,0.00,,,0.00,WUHU216DAVISVP2,2013-05-22 13:27:00,
2013-05-22 09:32:00,74.2,63.2,29.86,NE,39,1.0,4.0,68,0.00,,,0.00,WUHU216DAVISVP2,2013-05-22 13:32:00,
2013-05-22 09:37:00,74.6,61.4,29.86,WSW,247,3.0,6.0,63,0.00,,,0.00,WUHU216DAVISVP2,2013-05-22 13:37:00,
2013-05-22 09:42:00,74.9,61.7,29.86,SW,222,0.0,7.0,63,0.00,,,0.00,WUHU216DAVISVP2,2013-05-22 13:42:00,
2013-05-22 09:47:00,75.3,61.6,29.86,SW,226,3.0,7.0,62,0.00,,,0.00,WUHU216DAVISVP2,2013-05-22 13:47:00,
2013-05-22 09:52:00,75.8,62.1,29.86,SSW,205,5.0,7.0,62,0.00,,,0.00,WUHU216DAVISVP2,2013-05-22 13:52:00,
2013-05-22 09:57:00,76.3,61.6,29.85,WNW,298,2.0,7.0,60,0.00,,,0.00,WUHU216DAVISVP2,2013-05-22 13:57:00,
2013-05-22 10:02:00,76.7,62.0,29.85,SSW,209,6.0,8.0,60,0.00,,,0.00,WUHU216DAVISVP2,2013-05-22 14:02:00,
2013-05-22 10:07:00,77.0,61.8,29.85,South,177,0.0,10.0,59,0.00,,,0.00,WUHU216DAVISVP2,2013-05-22 14:07:00,
2013-05-22 10:12:00,77.3,63.0,29.85,NNW,331,2.0,10.0,61,0.00,,,0.00,WUHU216DAVISVP2,2013-05-22 14:12:00,
2013-05-22 10:17:00,77.5,61.8,29.86,SW,228,2.0,10.0,58,0.00,,,0.00,WUHU216DAVISVP2,2013-05-22 14:17:00,
2013-05-22 10:22:00,77.6,61.9,29.85,SW,233,4.0,10.0,58,0.00,,,0.00,WUHU216DAVISVP2,2013-05-22 14:22:00,
2013-05-22 10:27:00,77.7,61.5,29.85,SW,222,2.0,6.0,57,0.00,,,0.00,WUHU216DAVISVP2,2013-05-22 14:27:00,
2013-05-22 10:32:00,77.8,62.5,29.85,South,191,2.0,6.0,59,0.00,,,0.00,WUHU216DAVISVP2,2013-05-22 14:32:00,
2013-05-22 10:37:00,78.2,62.9,29.85,East,99,3.0,5.0,59,0.00,,,0.00,WUHU216DAVISVP2,2013-05-22 14:37:00,
2013-05-22 10:42:00,78.5,63.7,29.85,SSE,157,1.0,7.0,60,0.00,,,0.00,WUHU216DAVISVP2,2013-05-22 14:42:00,
2013-05-22 10:47:00,78.8,61.4,29.85,SSW,201,3.0,8.0,55,0.00,,,0.00,WUHU216DAVISVP2,2013-05-22 14:47:00,
2013-05-22 10:52:00,78.9,61.0,29.85,SW,231,7.0,8.0,54,0.00,,,0.00,WUHU216DAVISVP2,2013-05-22 14:52:00,
2013-05-22 10:57:00,78.8,62.0,29.85,SSW,193,4.0,8.0,56,0.00,,,0.00,WUHU216DAVISVP2,2013-05-22 14:57:00,
2013-05-22 11:02:00,79.0,60.6,29.85,South,190,6.0,10.0,53,0.00,,,0.00,WUHU216DAVISVP2,2013-05-22 15:02:00,
2013-05-22 11:07:00,79.4,62.5,29.85,SSW,210,4.0,10.0,56,0.00,,,0.00,WUHU216DAVISVP2,2013-05-22 15:07:00,
2013-05-22 11:12:00,79.9,61.4,29.85,SSW,208,3.0,10.0,53,0.00,,,0.00,WUHU216DAVISVP2,2013-05-22 15:12:00,
2013-05-22 11:17:00,80.3,60.5,29.85,West,270,3.0,9.0,51,0.00,,,0.00,WUHU216DAVISVP2,2013-05-22 15:17:00,
2013-05-22 11:22:00,80.6,61.3,29.84,NE,52,6.0,8.0,52,0.00,,,0.00,WUHU216DAVISVP2,2013-05-22 15:22:00,
2013-05-22 11:27:00,80.8,61.5,29.84,WSW,239,4.0,9.0,52,0.00,,,0.00,WUHU216DAVISVP2,2013-05-22 15:27:00,
2013-05-22 11:32:00,81.1,62.3,29.84,SW,234,0.0,9.0,53,0.00,,,0.00,WUHU216DAVISVP2,2013-05-22 15:32:00,
2013-05-22 11:37:00,81.5,62.9,29.84,South,185,1.0,9.0,53,0.00,,,0.00,WUHU216DAVISVP2,2013-05-22 15:37:00,
2013-05-22 11:42:00,81.7,63.1,29.85,South,185,4.0,9.0,53,0.00,,,0.00,WUHU216DAVISVP2,2013-05-22 15:42:00,
2013-05-22 11:47:00,81.4,61.7,29.85,WSW,245,5.0,10.0,51,0.00,,,0.00,WUHU216DAVISVP2,2013-05-22 15:47:00,
2013-05-22 11:52:00,81.2,62.1,29.85,SSW,212,3.0,10.0,52,0.00,,,0.00,WUHU216DAVISVP2,2013-05-22 15:52:00,
2013-05-22 11:57:00,81.1,62.5,29.85,SSW,198,2.0,10.0,53,0.00,,,0.00,WUHU216DAVISVP2,2013-05-22 15:57:00,
2013-05-22 12:02:00,81.3,62.1,29.84,SSW,206,3.0,10.0,52,0.00,,,0.00,WUHU216DAVISVP2,2013-05-22 16:02:00,
2013-05-22 12:07:00,81.5,64.0,29.84,South,189,0.0,10.0,55,0.00,,,0.00,WUHU216DAVISVP2,2013-05-22 16:07:00,
2013-05-22 12:12:00,81.8,63.7,29.84,WSW,255,3.0,8.0,54,0.00,,,0.00,WUHU216DAVISVP2,2013-05-22 16:12:00,
2013-05-22 12:17:00,82.3,67.3,29.84,East,97,0.0,8.0,60,0.00,,,0.00,WUHU216DAVISVP2,2013-05-22 16:17:00,
2013-05-22 12:22:00,83.0,64.8,29.84,SW,222,5.0,7.0,54,0.00,,,0.00,WUHU216DAVISVP2,2013-05-22 16:22:00,
2013-05-22 12:27:00,83.6,65.9,29.84,South,181,3.0,8.0,55,0.00,,,0.00,WUHU216DAVISVP2,2013-05-22 16:27:00,
2013-05-22 12:32:00,84.0,64.1,29.83,East,95,2.0,8.0,51,0.00,,,0.00,WUHU216DAVISVP2,2013-05-22 16:32:00,
2013-05-22 12:37:00,84.2,66.5,29.83,NNW,330,2.0,8.0,55,0.00,,,0.00,WUHU216DAVISVP2,2013-05-22 16:37:00,
2013-05-22 12:42:00,84.3,64.9,29.83,SW,227,1.0,8.0,52,0.00,,,0.00,WUHU216DAVISVP2,2013-05-22 16:42:00,
2013-05-22 12:47:00,84.4,64.5,29.83,South,184,11.0,11.0,51,0.00,,,0.00,WUHU216DAVISVP2,2013-05-22 16:47:00,
2013-05-22 12:52:00,83.8,64.3,29.83,WSW,258,3.0,15.0,52,0.00,,,0.00,WUHU216DAVISVP2,2013-05-22 16:52:00,
2013-05-22 12:57:00,83.8,64.3,29.84,SW,219,11.0,15.0,52,0.00,,,0.00,WUHU216DAVISVP2,2013-05-22 16:57:00,
2013-05-22 13:02:00,83.8,64.8,29.83,NW,323,6.0,15.0,53,0.00,,,0.00,WUHU216DAVISVP2,2013-05-22 17:02:00,
2013-05-22 13:07:00,84.0,64.5,29.83,WSW,237,5.0,15.0,52,0.00,,,0.00,WUHU216DAVISVP2,2013-05-22 17:07:00,
2013-05-22 13:12:00,84.1,66.4,29.82,SW,230,1.0,12.0,55,0.00,,,0.00,WUHU216DAVISVP2,2013-05-22 17:12:00,
2013-05-22 13:17:00,84.4,65.6,29.82,SSW,204,3.0,12.0,53,0.00,,,0.00,WUHU216DAVISVP2,2013-05-22 17:17:00,
2013-05-22 13:22:00,84.8,65.4,29.82,West,262,2.0,11.0,52,0.00,,,0.00,WUHU216DAVISVP2,2013-05-22 17:22:00,
2013-05-22 13:27:00,85.1,67.9,29.82,SSE,155,1.0,11.0,56,0.00,,,0.00,WUHU216DAVISVP2,2013-05-22 17:27:00,
2013-05-22 13:32:00,85.5,67.7,29.82,SSW,206,7.0,7.0,55,0.00,,,0.00,WUHU216DAVISVP2,2013-05-22 17:32:00,
2013-05-22 13:37:00,85.4,66.5,29.81,SE,135,1.0,8.0,53,0.00,,,0.00,WUHU216DAVISVP2,2013-05-22 17:37:00,
2013-05-22 13:42:00,85.4,66.5,29.81,South,182,2.0,8.0,53,0.00,,,0.00,WUHU216DAVISVP2,2013-05-22 17:42:00,
2013-05-22 13:47:00,85.4,67.6,29.81,SW,216,0.0,8.0,55,0.00,,,0.00,WUHU216DAVISVP2,2013-05-22 17:47:00,
2013-05-22 13:52:00,85.8,66.9,29.80,ESE,111,5.0,8.0,53,0.00,,,0.00,WUHU216DAVISVP2,2013-05-22 17:52:00,
2013-05-22 13:57:00,86.2,66.7,29.80,SW,215,2.0,7.0,52,0.00,,,0.00,WUHU216DAVISVP2,2013-05-22 17:57:00,
2013-05-22 14:02:00,86.1,66.0,29.80,SSW,199,2.0,9.0,51,0.00,,,0.00,WUHU216DAVISVP2,2013-05-22 18:02:00,
2013-05-22 14:07:00,85.8,67.4,29.80,SE,136,0.0,10.0,54,0.00,,,0.00,WUHU216DAVISVP2,2013-05-22 18:07:00,
2013-05-22 14:12:00,85.7,66.2,29.80,SSW,195,2.0,10.0,52,0.00,,,0.00,WUHU216DAVISVP2,2013-05-22 18:12:00,
2013-05-22 14:17:00,85.8,67.4,29.79,SW,219,3.0,10.0,54,0.00,,,0.00,WUHU216DAVISVP2,2013-05-22 18:17:00,
2013-05-22 14:22:00,85.7,66.2,29.79,SW,215,1.0,10.0,52,0.00,,,0.00,WUHU216DAVISVP2,2013-05-22 18:22:00,
2013-05-22 14:27:00,86.1,67.5,29.79,SSW,194,2.0,9.0,54,0.00,,,0.00,WUHU216DAVISVP2,2013-05-22 18:27:00,
2013-05-22 14:32:00,86.3,66.0,29.79,West,275,0.0,9.0,51,0.00,,,0.00,WUHU216DAVISVP2,2013-05-22 18:32:00,
2013-05-22 14:37:00,86.5,65.1,29.79,South,179,1.0,11.0,49,0.00,,,0.00,WUHU216DAVISVP2,2013-05-22 18:37:00,
2013-05-22 14:42:00,86.3,64.9,29.79,SE,142,1.0,11.0,49,0.00,,,0.00,WUHU216DAVISVP2,2013-05-22 18:42:00,
2013-05-22 14:47:00,85.7,65.7,29.79,SSW,199,6.0,11.0,51,0.00,,,0.00,WUHU216DAVISVP2,2013-05-22 18:47:00,
2013-05-22 14:52:00,85.4,65.4,29.79,West,270,1.0,11.0,51,0.00,,,0.00,WUHU216DAVISVP2,2013-05-22 18:52:00,
2013-05-22 14:57:00,85.6,66.7,29.78,SSW,211,1.0,11.0,53,0.00,,,0.00,WUHU216DAVISVP2,2013-05-22 18:57:00,
2013-05-22 15:02:00,85.5,65.5,29.78,SW,226,5.0,11.0,51,0.00,,,0.00,WUHU216DAVISVP2,2013-05-22 19:02:00,
2013-05-22 15:07:00,85.7,65.7,29.78,SW,231,2.0,9.0,51,0.00,,,0.00,WUHU216DAVISVP2,2013-05-22 19:07:00,
2013-05-22 15:12:00,86.0,65.3,29.77,SSW,201,3.0,10.0,50,0.00,,,0.00,WUHU216DAVISVP2,2013-05-22 19:12:00,
2013-05-22 15:17:00,86.3,65.0,29.77,SSW,193,3.0,10.0,49,0.00,,,0.00,WUHU216DAVISVP2,2013-05-22 19:17:00,
2013-05-22 15:22:00,86.1,64.8,29.77,WSW,245,0.0,10.0,49,0.00,,,0.00,WUHU216DAVISVP2,2013-05-22 19:22:00,
2013-05-22 15:27:00,86.1,68.8,29.76,WSW,238,2.0,10.0,56,0.00,,,0.00,WUHU216DAVISVP2,2013-05-22 19:27:00,
2013-05-22 15:32:00,86.2,64.9,29.76,WNW,287,3.0,7.0,49,0.00,,,0.00,WUHU216DAVISVP2,2013-05-22 19:32:00,
2013-05-22 15:37:00,86.1,64.2,29.76,South,180,2.0,8.0,48,0.00,,,0.00,WUHU216DAVISVP2,2013-05-22 19:37:00,
2013-05-22 15:42:00,85.4,65.4,29.76,South,191,1.0,12.0,51,0.00,,,0.00,WUHU216DAVISVP2,2013-05-22 19:42:00,
2013-05-22 15:47:00,84.9,64.3,29.76,South,190,4.0,12.0,50,0.00,,,0.00,WUHU216DAVISVP2,2013-05-22 19:47:00,
2013-05-22 15:52:00,84.3,63.2,29.76,South,189,9.0,12.0,49,0.00,,,0.00,WUHU216DAVISVP2,2013-05-22 19:52:00,
2013-05-22 15:57:00,83.8,63.3,29.76,SSW,206,9.0,12.0,50,0.00,,,0.00,WUHU216DAVISVP2,2013-05-22 19:57:00,
2013-05-22 16:02:00,83.4,63.5,29.76,SW,231,6.0,10.0,51,0.00,,,0.00,WUHU216DAVISVP2,2013-05-22 20:02:00,
2013-05-22 16:07:00,83.2,63.9,29.76,SSW,201,5.0,9.0,52,0.00,,,0.00,WUHU216DAVISVP2,2013-05-22 20:07:00,
2013-05-22 16:12:00,82.9,63.1,29.76,SSW,203,7.0,17.0,51,0.00,,,0.00,WUHU216DAVISVP2,2013-05-22 20:12:00,
2013-05-22 16:17:00,82.3,64.2,29.78,SW,233,7.0,17.0,54,0.00,,,0.00,WUHU216DAVISVP2,2013-05-22 20:17:00,
2013-05-22 16:22:00,81.2,63.7,29.79,SW,217,5.0,17.0,55,0.00,,,0.00,WUHU216DAVISVP2,2013-05-22 20:22:00,
2013-05-22 16:27:00,80.3,62.9,29.79,WSW,240,5.0,18.0,55,0.00,,,0.00,WUHU216DAVISVP2,2013-05-22 20:27:00,
2013-05-22 16:32:00,79.8,61.9,29.80,SW,226,5.0,18.0,54,0.00,,,0.00,WUHU216DAVISVP2,2013-05-22 20:32:00,
2013-05-22 16:37:00,79.4,62.0,29.81,SW,235,4.0,18.0,55,0.00,,,0.00,WUHU216DAVISVP2,2013-05-22 20:37:00,
2013-05-22 16:42:00,79.1,64.7,29.82,SW,230,8.0,14.0,61,0.00,,,0.00,WUHU216DAVISVP2,2013-05-22 20:42:00,
2013-05-22 16:47:00,77.7,63.9,29.83,West,268,9.0,16.0,62,0.00,,,0.00,WUHU216DAVISVP2,2013-05-22 20:47:00,
2013-05-22 16:52:00,76.4,63.5,29.83,WNW,283,3.0,19.0,64,0.00,,,0.00,WUHU216DAVISVP2,2013-05-22 20:52:00,
2013-05-22 16:57:00,75.7,63.3,29.83,SSW,196,6.0,19.0,65,0.00,,,0.00,WUHU216DAVISVP2,2013-05-22 20:57:00,
2013-05-22 17:02:00,75.1,62.7,29.82,NNW,344,3.0,19.0,65,0.00,,,0.00,WUHU216DAVISVP2,2013-05-22 21:02:00,
2013-05-22 17:07:00,74.7,62.8,29.81,WNW,293,3.0,16.0,66,0.00,,,0.00,WUHU216DAVISVP2,2013-05-22 21:07:00,
2013-05-22 17:12:00,74.4,63.4,29.80,South,180,1.0,16.0,68,0.00,,,0.00,WUHU216DAVISVP2,2013-05-22 21:12:00,
2013-05-22 17:17:00,74.4,62.9,29.80,South,187,1.0,9.0,67,0.00,,,0.00,WUHU216DAVISVP2,2013-05-22 21:17:00,
2013-05-22 17:22:00,74.4,63.4,29.80,SE,146,1.0,9.0,68,0.00,,,0.00,WUHU216DAVISVP2,2013-05-22 21:22:00,
2013-05-22 17:27:00,74.5,63.5,29.80,South,181,0.0,4.0,68,0.00,,,0.00,WUHU216DAVISVP2,2013-05-22 21:27:00,
2013-05-22 17:32:00,74.4,62.5,29.80,SSE,153,0.0,8.0,66,0.00,,,0.00,WUHU216DAVISVP2,2013-05-22 21:32:00,
2013-05-22 17:37:00,74.1,62.2,29.80,SSW,204,3.0,8.0,66,0.00,,,0.00,WUHU216DAVISVP2,2013-05-22 21:37:00,
2013-05-22 17:42:00,73.5,62.9,29.80,SE,141,0.0,8.0,69,0.00,,,0.00,WUHU216DAVISVP2,2013-05-22 21:42:00,
2013-05-22 17:47:00,72.8,62.2,29.79,East,101,0.0,7.0,69,0.01,,,0.01,WUHU216DAVISVP2,2013-05-22 21:47:00,
2013-05-22 17:52:00,72.2,62.8,29.78,NE,52,1.0,7.0,72,0.01,,,0.01,WUHU216DAVISVP2,2013-05-22 21:52:00,
2013-05-22 17:57:00,71.7,63.5,29.80,West,280,2.0,3.0,75,0.01,,,0.01,WUHU216DAVISVP2,2013-05-22 21:57:00,
2013-05-22 18:02:00,71.7,63.9,29.80,SW,228,0.0,3.0,76,0.01,,,0.01,WUHU216DAVISVP2,2013-05-22 22:02:00,
2013-05-22 18:07:00,71.8,65.0,29.80,SW,225,3.0,3.0,79,0.01,,,0.01,WUHU216DAVISVP2,2013-05-22 22:07:00,
2013-05-22 18:12:00,72.1,63.1,29.81,SW,224,2.0,6.0,73,0.01,,,0.01,WUHU216DAVISVP2,2013-05-22 22:12:00,
2013-05-22 18:17:00,72.1,63.9,29.82,SW,220,1.0,6.0,75,0.01,,,0.01,WUHU216DAVISVP2,2013-05-22 22:17:00,
2013-05-22 18:22:00,71.9,61.8,29.81,East,93,0.0,6.0,70,0.01,,,0.01,WUHU216DAVISVP2,2013-05-22 22:22:00,
2013-05-22 18:27:00,71.7,62.0,29.81,ESE,116,0.0,6.0,71,0.01,,,0.01,WUHU216DAVISVP2,2013-05-22 22:27:00,
2013-05-22 18:32:00,71.6,62.6,29.81,SSE,155,0.0,4.0,73,0.01,,,0.01,WUHU216DAVISVP2,2013-05-22 22:32:00,
2013-05-22 18:37:00,71.5,63.3,29.81,SSE,155,0.0,3.0,75,0.01,,,0.01,WUHU216DAVISVP2,2013-05-22 22:37:00,
2013-05-22 18:42:00,71.4,63.6,29.81,NE,45,3.0,3.0,76,0.01,,,0.01,WUHU216DAVISVP2,2013-05-22 22:42:00,
2013-05-22 18:47:00,71.0,63.5,29.81,ENE,68,0.0,5.0,77,0.00,,,0.01,WUHU216DAVISVP2,2013-05-22 22:47:00,
2013-05-22 18:52:00,70.7,64.0,29.80,NE,34,1.0,7.0,79,0.00,,,0.01,WUHU216DAVISVP2,2013-05-22 22:52:00,
2013-05-22 18:57:00,70.3,64.3,29.80,NE,34,1.0,7.0,81,0.00,,,0.01,WUHU216DAVISVP2,2013-05-22 22:57:00,
2013-05-22 19:02:00,70.1,63.7,29.80,SW,236,1.0,7.0,80,0.00,,,0.01,WUHU216DAVISVP2,2013-05-22 23:02:00,
2013-05-22 19:07:00,69.9,64.2,29.80,WSW,243,0.0,4.0,82,0.01,,,0.02,WUHU216DAVISVP2,2013-05-22 23:07:00,
2013-05-22 19:12:00,69.7,64.4,29.81,WSW,239,0.0,2.0,83,0.01,,,0.02,WUHU216DAVISVP2,2013-05-22 23:12:00,
2013-05-22 19:17:00,69.5,64.8,29.82,WSW,237,0.0,2.0,85,0.01,,,0.02,WUHU216DAVISVP2,2013-05-22 23:17:00,
2013-05-22 19:22:00,69.3,64.9,29.82,WSW,237,0.0,2.0,86,0.01,,,0.02,WUHU216DAVISVP2,2013-05-22 23:22:00,
2013-05-22 19:27:00,68.9,64.2,29.83,WSW,251,1.0,3.0,85,0.01,,,0.02,WUHU216DAVISVP2,2013-05-22 23:27:00,
2013-05-22 19:32:00,68.6,64.3,29.83,WSW,251,0.0,3.0,86,0.01,,,0.02,WUHU216DAVISVP2,2013-05-22 23:32:00,
2013-05-22 19:37:00,68.4,64.1,29.82,SE,130,1.0,3.0,86,0.01,,,0.02,WUHU216DAVISVP2,2013-05-22 23:37:00,
2013-05-22 19:42:00,68.3,64.6,29.82,SE,133,1.0,3.0,88,0.01,,,0.02,WUHU216DAVISVP2,2013-05-22 23:42:00,
2013-05-22 19:47:00,68.2,62.5,29.82,South,181,2.0,14.0,82,0.01,,,0.02,WUHU216DAVISVP2,2013-05-22 23:47:00,
2013-05-22 19:52:00,68.5,63.2,29.83,South,187,3.0,14.0,83,0.01,,,0.02,WUHU216DAVISVP2,2013-05-22 23:52:00,
2013-05-22 19:57:00,68.5,62.2,29.83,SW,233,5.0,14.0,80,0.01,,,0.02,WUHU216DAVISVP2,2013-05-22 23:57:00,
2013-05-22 20:02:00,68.5,61.8,29.84,South,172,1.0,14.0,79,0.01,,,0.02,WUHU216DAVISVP2,2013-05-23 00:02:00,
2013-05-22 20:07:00,68.4,61.7,29.83,South,187,1.0,13.0,79,0.00,,,0.02,WUHU216DAVISVP2,2013-05-23 00:07:00,
2013-05-22 20:12:00,68.2,61.9,29.83,SSW,196,0.0,13.0,80,0.00,,,0.02,WUHU216DAVISVP2,2013-05-23 00:12:00,
2013-05-22 20:17:00,68.1,61.8,29.83,SW,216,3.0,6.0,80,0.00,,,0.02,WUHU216DAVISVP2,2013-05-23 00:17:00,
2013-05-22 20:22:00,67.9,61.9,29.84,South,182,0.0,5.0,81,0.00,,,0.02,WUHU216DAVISVP2,2013-05-23 00:22:00,
2013-05-22 20:27:00,67.8,61.5,29.84,South,189,0.0,5.0,80,0.00,,,0.02,WUHU216DAVISVP2,2013-05-23 00:27:00,
2013-05-22 20:32:00,67.8,61.8,29.84,SSW,210,5.0,7.0,81,0.01,,,0.03,WUHU216DAVISVP2,2013-05-23 00:32:00,
2013-05-22 20:37:00,67.6,61.2,29.84,SW,215,3.0,10.0,80,0.01,,,0.03,WUHU216DAVISVP2,2013-05-23 00:37:00,
2013-05-22 20:42:00,67.2,61.5,29.83,SSW,205,0.0,10.0,82,0.03,,,0.05,WUHU216DAVISVP2,2013-05-23 00:42:00,
2013-05-22 20:47:00,66.7,61.4,29.83,SSW,211,0.0,10.0,83,0.04,,,0.06,WUHU216DAVISVP2,2013-05-23 00:47:00,
2013-05-22 20:52:00,66.2,61.9,29.81,SE,141,0.0,10.0,86,0.04,,,0.06,WUHU216DAVISVP2,2013-05-23 00:52:00,
2013-05-22 20:57:00,65.8,61.5,29.81,SSW,206,1.0,9.0,86,0.04,,,0.06,WUHU216DAVISVP2,2013-05-23 00:57:00,
2013-05-22 21:02:00,65.4,61.7,29.82,SSW,213,2.0,9.0,88,0.04,,,0.06,WUHU216DAVISVP2,2013-05-23 01:02:00,
2013-05-22 21:07:00,65.1,61.4,29.79,East,81,5.0,5.0,88,0.04,,,0.06,WUHU216DAVISVP2,2013-05-23 01:07:00,
2013-05-22 21:12:00,64.9,61.9,29.80,NNW,328,3.0,6.0,90,0.04,,,0.06,WUHU216DAVISVP2,2013-05-23 01:12:00,
2013-05-22 21:17:00,64.7,61.7,29.80,North,10,3.0,6.0,90,0.04,,,0.06,WUHU216DAVISVP2,2013-05-23 01:17:00,
2013-05-22 21:22:00,64.5,61.8,29.81,NNW,345,0.0,5.0,91,0.04,,,0.06,WUHU216DAVISVP2,2013-05-23 01:22:00,
2013-05-22 21:27:00,64.5,62.1,29.82,SW,232,1.0,4.0,92,0.04,,,0.06,WUHU216DAVISVP2,2013-05-23 01:27:00,
2013-05-22 21:32:00,64.3,61.9,29.82,West,274,0.0,4.0,92,0.03,,,0.06,WUHU216DAVISVP2,2013-05-23 01:32:00,
2013-05-22 21:37:00,64.2,61.8,29.82,West,274,0.0,4.0,92,0.03,,,0.06,WUHU216DAVISVP2,2013-05-23 01:37:00,
2013-05-22 21:42:00,64.1,61.7,29.82,West,274,0.0,3.0,92,0.01,,,0.06,WUHU216DAVISVP2,2013-05-23 01:42:00,
2013-05-22 21:47:00,64.0,61.9,29.82,WNW,291,0.0,1.0,93,0.00,,,0.06,WUHU216DAVISVP2,2013-05-23 01:47:00,
2013-05-22 21:52:00,63.9,61.8,29.82,WNW,296,0.0,0.0,93,0.00,,,0.06,WUHU216DAVISVP2,2013-05-23 01:52:00,
2013-05-22 21:57:00,63.9,62.1,29.82,NE,39,0.0,2.0,94,0.00,,,0.06,WUHU216DAVISVP2,2013-05-23 01:57:00,
2013-05-22 22:02:00,63.8,62.0,29.83,NE,39,0.0,2.0,94,0.00,,,0.06,WUHU216DAVISVP2,2013-05-23 02:02:00,
2013-05-22 22:07:00,63.6,61.8,29.82,NE,39,0.0,2.0,94,0.00,,,0.06,WUHU216DAVISVP2,2013-05-23 02:07:00,
2013-05-22 22:12:00,63.6,61.8,29.83,NE,39,0.0,2.0,94,0.00,,,0.06,WUHU216DAVISVP2,2013-05-23 02:12:00,
2013-05-22 22:17:00,63.5,61.7,29.83,NE,39,0.0,1.0,94,0.00,,,0.06,WUHU216DAVISVP2,2013-05-23 02:17:00,
2013-05-22 22:22:00,63.4,61.9,29.83,NE,39,0.0,1.0,95,0.00,,,0.06,WUHU216DAVISVP2,2013-05-23 02:22:00,
2013-05-22 22:27:00,63.4,61.9,29.83,NE,39,0.0,1.0,95,0.00,,,0.06,WUHU216DAVISVP2,2013-05-23 02:27:00,
2013-05-22 22:32:00,63.4,61.9,29.83,NE,39,0.0,1.0,95,0.00,,,0.06,WUHU216DAVISVP2,2013-05-23 02:32:00,
2013-05-22 22:37:00,63.3,61.8,29.83,NE,39,0.0,1.0,95,0.00,,,0.06,WUHU216DAVISVP2,2013-05-23 02:37:00,
2013-05-22 22:42:00,63.3,61.8,29.84,NE,39,0.0,1.0,95,0.00,,,0.06,WUHU216DAVISVP2,2013-05-23 02:42:00,
2013-05-22 22:47:00,63.3,61.8,29.84,NE,39,0.0,0.0,95,0.00,,,0.06,WUHU216DAVISVP2,2013-05-23 02:47:00,
2013-05-22 22:52:00,63.2,61.7,29.84,NE,39,0.0,0.0,95,0.00,,,0.06,WUHU216DAVISVP2,2013-05-23 02:52:00,
2013-05-22 22:57:00,63.2,61.7,29.84,NE,39,0.0,0.0,95,0.00,,,0.06,WUHU216DAVISVP2,2013-05-23 02:57:00,
2013-05-22 23:02:00,63.1,61.9,29.84,NE,39,0.0,0.0,96,0.00,,,0.06,WUHU216DAVISVP2,2013-05-23 03:02:00,
2013-05-22 23:07:00,63.2,62.0,29.85,NE,39,0.0,2.0,96,0.00,,,0.06,WUHU216DAVISVP2,2013-05-23 03:07:00,
2013-05-22 23:12:00,63.2,62.0,29.85,South,170,0.0,3.0,96,0.00,,,0.06,WUHU216DAVISVP2,2013-05-23 03:12:00,
2013-05-22 23:17:00,63.3,62.1,29.84,ESE,123,0.0,3.0,96,0.01,,,0.07,WUHU216DAVISVP2,2013-05-23 03:17:00,
2013-05-22 23:22:00,63.3,62.1,29.84,ESE,123,0.0,3.0,96,0.01,,,0.07,WUHU216DAVISVP2,2013-05-23 03:22:00,
2013-05-22 23:27:00,63.3,62.1,29.84,ESE,123,0.0,3.0,96,0.01,,,0.07,WUHU216DAVISVP2,2013-05-23 03:27:00,
2013-05-22 23:32:00,63.4,62.2,29.83,ESE,123,0.0,3.0,96,0.01,,,0.07,WUHU216DAVISVP2,2013-05-23 03:32:00,
2013-05-22 23:37:00,63.4,62.2,29.83,ESE,123,1.0,2.0,96,0.01,,,0.07,WUHU216DAVISVP2,2013-05-23 03:37:00,
2013-05-22 23:42:00,63.4,62.2,29.83,ESE,123,0.0,2.0,96,0.01,,,0.07,WUHU216DAVISVP2,2013-05-23 03:42:00,
2013-05-22 23:47:00,63.4,62.2,29.82,ESE,108,2.0,2.0,96,0.02,,,0.08,WUHU216DAVISVP2,2013-05-23 03:47:00,
2013-05-22 23:52:00,63.4,62.2,29.81,NE,48,4.0,4.0,96,0.02,,,0.08,WUHU216DAVISVP2,2013-05-23 03:52:00,
2013-05-22 23:57:00,63.3,61.8,29.81,ENE,62,0.0,5.0,95,0.02,,,0.08,WUHU216DAVISVP2,2013-05-23 03:57:00,